ROYN(METAR)
07/27 16:00
METAR ROYN 270700Z AUTO 06010KT 9999 FEW013 31/27 Q0995 RMK A2939=
戻る
トップページへ戻る
IMOC Co,.Ltd.